sensor_id;sensor_type;location;lat;lon;timestamp;temperature;humidity
19252;DHT22;9760;50.944;5.304;2023-08-06T00:00:08;15.00;99.90
19252;DHT22;9760;50.944;5.304;2023-08-06T00:02:34;15.00;99.90
19252;DHT22;9760;50.944;5.304;2023-08-06T00:05:00;15.10;99.90
19252;DHT22;9760;50.944;5.304;2023-08-06T00:07:26;15.10;99.90
19252;DHT22;9760;50.944;5.304;2023-08-06T00:09:52;15.10;99.90
19252;DHT22;9760;50.944;5.304;2023-08-06T00:12:17;15.10;99.90
19252;DHT22;9760;50.944;5.304;2023-08-06T00:14:43;15.20;99.90
19252;DHT22;9760;50.944;5.304;2023-08-06T00:17:09;15.20;99.90
19252;DHT22;9760;50.944;5.304;2023-08-06T00:19:35;15.20;99.90
19252;DHT22;9760;50.944;5.304;2023-08-06T00:22:00;15.20;99.90
19252;DHT22;9760;50.944;5.304;2023-08-06T00:24:27;15.20;99.90
19252;DHT22;9760;50.944;5.304;2023-08-06T00:26:53;15.30;99.90
19252;DHT22;9760;50.944;5.304;2023-08-06T00:29:18;15.30;99.90
19252;DHT22;9760;50.944;5.304;2023-08-06T00:31:44;15.30;99.90
19252;DHT22;9760;50.944;5.304;2023-08-06T00:34:10;15.30;99.90
19252;DHT22;9760;50.944;5.304;2023-08-06T00:36:35;15.30;99.90
19252;DHT22;9760;50.944;5.304;2023-08-06T00:39:01;15.30;99.90
19252;DHT22;9760;50.944;5.304;2023-08-06T00:41:27;15.30;99.90
19252;DHT22;9760;50.944;5.304;2023-08-06T00:43:53;15.30;99.90
19252;DHT22;9760;50.944;5.304;2023-08-06T00:46:18;15.20;99.90
19252;DHT22;9760;50.944;5.304;2023-08-06T00:48:44;15.20;99.90
19252;DHT22;9760;50.944;5.304;2023-08-06T00:51:10;15.20;99.90
19252;DHT22;9760;50.944;5.304;2023-08-06T00:53:38;15.20;99.90
19252;DHT22;9760;50.944;5.304;2023-08-06T00:56:05;15.20;99.90
19252;DHT22;9760;50.944;5.304;2023-08-06T00:58:31;15.10;99.90
19252;DHT22;9760;50.944;5.304;2023-08-06T01:00:57;15.10;99.90
19252;DHT22;9760;50.944;5.304;2023-08-06T01:03:23;15.10;99.90
19252;DHT22;9760;50.944;5.304;2023-08-06T01:05:48;15.10;99.90
19252;DHT22;9760;50.944;5.304;2023-08-06T01:14:12;15.10;99.90
19252;DHT22;9760;50.944;5.304;2023-08-06T01:16:41;15.20;99.90
19252;DHT22;9760;50.944;5.304;2023-08-06T01:19:19;15.10;99.90
19252;DHT22;9760;50.944;5.304;2023-08-06T01:21:45;15.10;99.90
19252;DHT22;9760;50.944;5.304;2023-08-06T01:24:11;15.10;99.90
19252;DHT22;9760;50.944;5.304;2023-08-06T01:26:43;15.10;99.90
19252;DHT22;9760;50.944;5.304;2023-08-06T01:29:17;15.10;99.90
19252;DHT22;9760;50.944;5.304;2023-08-06T01:31:48;15.10;99.90
19252;DHT22;9760;50.944;5.304;2023-08-06T01:34:28;15.10;99.90
19252;DHT22;9760;50.944;5.304;2023-08-06T01:36:57;15.10;99.90
19252;DHT22;9760;50.944;5.304;2023-08-06T01:39:23;15.10;99.90
19252;DHT22;9760;50.944;5.304;2023-08-06T01:41:48;15.10;99.90
19252;DHT22;9760;50.944;5.304;2023-08-06T01:44:15;15.10;99.90
19252;DHT22;9760;50.944;5.304;2023-08-06T01:46:41;15.10;99.90
19252;DHT22;9760;50.944;5.304;2023-08-06T01:49:07;15.10;99.90
19252;DHT22;9760;50.944;5.304;2023-08-06T01:51:33;15.10;99.90
19252;DHT22;9760;50.944;5.304;2023-08-06T01:53:58;15.10;99.90
19252;DHT22;9760;50.944;5.304;2023-08-06T01:56:24;15.00;99.90
19252;DHT22;9760;50.944;5.304;2023-08-06T01:58:50;15.00;99.90
19252;DHT22;9760;50.944;5.304;2023-08-06T02:01:15;14.90;99.90
19252;DHT22;9760;50.944;5.304;2023-08-06T02:03:41;15.00;99.90
19252;DHT22;9760;50.944;5.304;2023-08-06T02:06:07;15.00;99.90
19252;DHT22;9760;50.944;5.304;2023-08-06T02:08:33;15.00;99.90
19252;DHT22;9760;50.944;5.304;2023-08-06T02:10:59;15.00;99.90
19252;DHT22;9760;50.944;5.304;2023-08-06T02:13:24;15.00;99.90
19252;DHT22;9760;50.944;5.304;2023-08-06T02:15:50;15.10;99.90
19252;DHT22;9760;50.944;5.304;2023-08-06T02:18:16;15.10;99.90
19252;DHT22;9760;50.944;5.304;2023-08-06T02:20:42;15.10;99.90
19252;DHT22;9760;50.944;5.304;2023-08-06T02:23:08;15.20;99.90
19252;DHT22;9760;50.944;5.304;2023-08-06T02:25:34;15.10;99.90
19252;DHT22;9760;50.944;5.304;2023-08-06T02:28:00;15.20;99.90
19252;DHT22;9760;50.944;5.304;2023-08-06T02:30:26;15.20;99.90
19252;DHT22;9760;50.944;5.304;2023-08-06T02:32:51;15.20;99.90
19252;DHT22;9760;50.944;5.304;2023-08-06T02:35:17;15.20;99.90
19252;DHT22;9760;50.944;5.304;2023-08-06T02:37:42;15.20;99.90
19252;DHT22;9760;50.944;5.304;2023-08-06T02:40:08;15.10;99.90
19252;DHT22;9760;50.944;5.304;2023-08-06T02:42:34;15.10;99.90
19252;DHT22;9760;50.944;5.304;2023-08-06T02:45:00;15.10;99.90
19252;DHT22;9760;50.944;5.304;2023-08-06T02:47:25;15.10;99.90
19252;DHT22;9760;50.944;5.304;2023-08-06T02:49:51;15.20;99.90
19252;DHT22;9760;50.944;5.304;2023-08-06T02:52:17;15.20;99.90
19252;DHT22;9760;50.944;5.304;2023-08-06T02:54:42;15.20;99.90
19252;DHT22;9760;50.944;5.304;2023-08-06T02:57:08;15.20;99.90
19252;DHT22;9760;50.944;5.304;2023-08-06T02:59:34;15.10;99.90
19252;DHT22;9760;50.944;5.304;2023-08-06T03:01:59;15.20;99.90
19252;DHT22;9760;50.944;5.304;2023-08-06T03:04:25;15.20;99.90
19252;DHT22;9760;50.944;5.304;2023-08-06T03:06:52;15.30;99.90
19252;DHT22;9760;50.944;5.304;2023-08-06T03:09:18;15.20;99.90
19252;DHT22;9760;50.944;5.304;2023-08-06T03:11:44;15.20;99.90
19252;DHT22;9760;50.944;5.304;2023-08-06T03:14:10;15.20;99.90
19252;DHT22;9760;50.944;5.304;2023-08-06T03:16:35;15.20;99.90
19252;DHT22;9760;50.944;5.304;2023-08-06T03:19:01;15.30;99.90
19252;DHT22;9760;50.944;5.304;2023-08-06T03:21:27;15.20;99.90
19252;DHT22;9760;50.944;5.304;2023-08-06T03:23:53;15.10;99.90
19252;DHT22;9760;50.944;5.304;2023-08-06T03:26:18;15.10;99.90
19252;DHT22;9760;50.944;5.304;2023-08-06T03:28:44;15.10;99.90
19252;DHT22;9760;50.944;5.304;2023-08-06T03:31:10;15.10;99.90
19252;DHT22;9760;50.944;5.304;2023-08-06T03:33:35;15.10;99.90
19252;DHT22;9760;50.944;5.304;2023-08-06T03:36:01;15.10;99.90
19252;DHT22;9760;50.944;5.304;2023-08-06T03:38:27;15.10;99.90
19252;DHT22;9760;50.944;5.304;2023-08-06T03:40:53;15.10;99.90
19252;DHT22;9760;50.944;5.304;2023-08-06T03:43:19;15.10;99.90
19252;DHT22;9760;50.944;5.304;2023-08-06T03:45:45;15.00;99.90
19252;DHT22;9760;50.944;5.304;2023-08-06T03:48:10;15.00;99.90
19252;DHT22;9760;50.944;5.304;2023-08-06T03:50:36;15.10;99.90
19252;DHT22;9760;50.944;5.304;2023-08-06T03:53:02;15.10;99.90
19252;DHT22;9760;50.944;5.304;2023-08-06T03:55:28;15.10;99.90
19252;DHT22;9760;50.944;5.304;2023-08-06T03:57:53;15.10;99.90
19252;DHT22;9760;50.944;5.304;2023-08-06T04:00:19;15.10;99.90
19252;DHT22;9760;50.944;5.304;2023-08-06T04:02:45;15.10;99.90
19252;DHT22;9760;50.944;5.304;2023-08-06T04:05:11;15.10;99.90
19252;DHT22;9760;50.944;5.304;2023-08-06T04:07:37;15.10;99.90
19252;DHT22;9760;50.944;5.304;2023-08-06T04:10:04;15.20;99.90
19252;DHT22;9760;50.944;5.304;2023-08-06T04:12:30;15.20;99.90
19252;DHT22;9760;50.944;5.304;2023-08-06T04:15:01;15.20;99.90
19252;DHT22;9760;50.944;5.304;2023-08-06T04:17:26;15.20;99.90
19252;DHT22;9760;50.944;5.304;2023-08-06T04:19:53;15.20;99.90
19252;DHT22;9760;50.944;5.304;2023-08-06T04:22:19;15.20;99.90
19252;DHT22;9760;50.944;5.304;2023-08-06T04:24:45;15.30;99.90
19252;DHT22;9760;50.944;5.304;2023-08-06T04:27:12;15.20;99.90
19252;DHT22;9760;50.944;5.304;2023-08-06T04:29:38;15.20;99.90
19252;DHT22;9760;50.944;5.304;2023-08-06T04:32:05;15.20;99.90
19252;DHT22;9760;50.944;5.304;2023-08-06T04:34:31;15.20;99.90
19252;DHT22;9760;50.944;5.304;2023-08-06T04:36:56;15.20;99.90
19252;DHT22;9760;50.944;5.304;2023-08-06T04:39:22;15.20;99.90
19252;DHT22;9760;50.944;5.304;2023-08-06T04:41:47;15.30;99.90
19252;DHT22;9760;50.944;5.304;2023-08-06T04:44:13;15.30;99.90
19252;DHT22;9760;50.944;5.304;2023-08-06T04:46:39;15.30;99.90
19252;DHT22;9760;50.944;5.304;2023-08-06T04:49:04;15.30;99.90
19252;DHT22;9760;50.944;5.304;2023-08-06T04:51:30;15.20;99.90
19252;DHT22;9760;50.944;5.304;2023-08-06T04:53:57;15.20;99.90
19252;DHT22;9760;50.944;5.304;2023-08-06T04:56:22;15.20;99.90
19252;DHT22;9760;50.944;5.304;2023-08-06T04:58:48;15.20;99.90
19252;DHT22;9760;50.944;5.304;2023-08-06T05:01:14;15.10;99.90
19252;DHT22;9760;50.944;5.304;2023-08-06T05:03:40;15.10;99.90
19252;DHT22;9760;50.944;5.304;2023-08-06T05:06:05;15.00;99.90
19252;DHT22;9760;50.944;5.304;2023-08-06T05:08:31;15.00;99.90
19252;DHT22;9760;50.944;5.304;2023-08-06T05:10:56;15.10;99.90
19252;DHT22;9760;50.944;5.304;2023-08-06T05:13:22;15.10;99.90
19252;DHT22;9760;50.944;5.304;2023-08-06T05:15:48;15.10;99.90
19252;DHT22;9760;50.944;5.304;2023-08-06T05:18:14;15.10;99.90
19252;DHT22;9760;50.944;5.304;2023-08-06T05:20:41;15.10;99.90
19252;DHT22;9760;50.944;5.304;2023-08-06T05:23:06;15.00;99.90
19252;DHT22;9760;50.944;5.304;2023-08-06T05:25:34;15.10;99.90
19252;DHT22;9760;50.944;5.304;2023-08-06T05:28:01;15.10;99.90
19252;DHT22;9760;50.944;5.304;2023-08-06T05:30:27;15.10;99.90
19252;DHT22;9760;50.944;5.304;2023-08-06T05:32:53;15.00;99.90
19252;DHT22;9760;50.944;5.304;2023-08-06T05:35:19;15.00;99.90
19252;DHT22;9760;50.944;5.304;2023-08-06T05:37:45;15.00;99.90
19252;DHT22;9760;50.944;5.304;2023-08-06T05:40:10;15.00;99.90
19252;DHT22;9760;50.944;5.304;2023-08-06T05:42:36;14.90;99.90
19252;DHT22;9760;50.944;5.304;2023-08-06T05:45:02;15.00;99.90
19252;DHT22;9760;50.944;5.304;2023-08-06T05:47:27;15.00;99.90
19252;DHT22;9760;50.944;5.304;2023-08-06T05:49:53;14.90;99.90
19252;DHT22;9760;50.944;5.304;2023-08-06T05:52:19;14.90;99.90
19252;DHT22;9760;50.944;5.304;2023-08-06T05:54:44;14.80;99.90
19252;DHT22;9760;50.944;5.304;2023-08-06T05:57:10;14.80;99.90
19252;DHT22;9760;50.944;5.304;2023-08-06T05:59:35;14.80;99.90
19252;DHT22;9760;50.944;5.304;2023-08-06T06:02:01;14.70;99.90
19252;DHT22;9760;50.944;5.304;2023-08-06T06:04:28;14.80;99.90
19252;DHT22;9760;50.944;5.304;2023-08-06T06:06:53;14.80;99.90
19252;DHT22;9760;50.944;5.304;2023-08-06T06:09:19;14.80;99.90
19252;DHT22;9760;50.944;5.304;2023-08-06T06:11:44;14.70;99.90
19252;DHT22;9760;50.944;5.304;2023-08-06T06:14:10;14.80;99.90
19252;DHT22;9760;50.944;5.304;2023-08-06T06:16:36;14.60;99.90
19252;DHT22;9760;50.944;5.304;2023-08-06T06:19:01;14.60;99.90
19252;DHT22;9760;50.944;5.304;2023-08-06T06:21:27;14.40;99.90
19252;DHT22;9760;50.944;5.304;2023-08-06T06:23:53;14.30;99.90
19252;DHT22;9760;50.944;5.304;2023-08-06T06:26:18;14.20;99.90
19252;DHT22;9760;50.944;5.304;2023-08-06T06:28:44;14.00;99.90
19252;DHT22;9760;50.944;5.304;2023-08-06T06:31:10;14.00;99.90
19252;DHT22;9760;50.944;5.304;2023-08-06T06:33:36;13.90;99.90
19252;DHT22;9760;50.944;5.304;2023-08-06T06:36:02;13.80;99.90
19252;DHT22;9760;50.944;5.304;2023-08-06T06:38:33;13.80;99.90
19252;DHT22;9760;50.944;5.304;2023-08-06T06:40:59;13.70;99.90
19252;DHT22;9760;50.944;5.304;2023-08-06T06:43:25;13.70;99.90
19252;DHT22;9760;50.944;5.304;2023-08-06T06:46:01;13.60;99.90
19252;DHT22;9760;50.944;5.304;2023-08-06T06:48:31;13.70;99.90
19252;DHT22;9760;50.944;5.304;2023-08-06T06:50:56;13.60;99.90
19252;DHT22;9760;50.944;5.304;2023-08-06T06:53:23;13.60;99.90
19252;DHT22;9760;50.944;5.304;2023-08-06T06:55:55;13.60;99.90
19252;DHT22;9760;50.944;5.304;2023-08-06T06:58:21;13.60;99.90
19252;DHT22;9760;50.944;5.304;2023-08-06T07:00:47;13.70;99.90
19252;DHT22;9760;50.944;5.304;2023-08-06T07:03:14;13.70;99.90
19252;DHT22;9760;50.944;5.304;2023-08-06T07:05:40;13.70;99.90
19252;DHT22;9760;50.944;5.304;2023-08-06T07:08:06;13.70;99.90
19252;DHT22;9760;50.944;5.304;2023-08-06T07:10:31;13.80;99.90
19252;DHT22;9760;50.944;5.304;2023-08-06T07:12:57;13.80;99.90
19252;DHT22;9760;50.944;5.304;2023-08-06T07:15:23;13.90;99.90
19252;DHT22;9760;50.944;5.304;2023-08-06T07:17:48;13.90;99.90
19252;DHT22;9760;50.944;5.304;2023-08-06T07:20:14;14.00;99.90
19252;DHT22;9760;50.944;5.304;2023-08-06T07:22:40;14.00;99.90
19252;DHT22;9760;50.944;5.304;2023-08-06T07:25:05;14.10;99.90
19252;DHT22;9760;50.944;5.304;2023-08-06T07:27:32;14.10;99.90
19252;DHT22;9760;50.944;5.304;2023-08-06T07:29:58;14.10;99.90
19252;DHT22;9760;50.944;5.304;2023-08-06T07:32:24;14.10;99.90
19252;DHT22;9760;50.944;5.304;2023-08-06T07:34:49;14.10;99.90
19252;DHT22;9760;50.944;5.304;2023-08-06T07:37:16;14.10;99.90
19252;DHT22;9760;50.944;5.304;2023-08-06T07:39:42;14.00;99.90
19252;DHT22;9760;50.944;5.304;2023-08-06T07:42:08;14.00;99.90
19252;DHT22;9760;50.944;5.304;2023-08-06T07:44:35;14.00;99.90
19252;DHT22;9760;50.944;5.304;2023-08-06T07:47:01;14.00;99.90
19252;DHT22;9760;50.944;5.304;2023-08-06T07:49:27;13.90;99.90
19252;DHT22;9760;50.944;5.304;2023-08-06T07:51:52;13.90;99.90
19252;DHT22;9760;50.944;5.304;2023-08-06T07:54:18;13.90;99.90
19252;DHT22;9760;50.944;5.304;2023-08-06T07:56:44;13.90;99.90
19252;DHT22;9760;50.944;5.304;2023-08-06T07:59:09;13.90;99.90
19252;DHT22;9760;50.944;5.304;2023-08-06T08:01:35;13.90;99.90
19252;DHT22;9760;50.944;5.304;2023-08-06T08:04:01;13.80;99.90
19252;DHT22;9760;50.944;5.304;2023-08-06T08:06:26;13.90;99.90
19252;DHT22;9760;50.944;5.304;2023-08-06T08:08:52;13.80;99.90
19252;DHT22;9760;50.944;5.304;2023-08-06T08:11:18;13.90;99.90
19252;DHT22;9760;50.944;5.304;2023-08-06T08:13:44;13.90;99.90
19252;DHT22;9760;50.944;5.304;2023-08-06T08:16:10;13.80;99.90
19252;DHT22;9760;50.944;5.304;2023-08-06T08:18:35;13.90;99.90
19252;DHT22;9760;50.944;5.304;2023-08-06T08:21:01;13.90;99.90
19252;DHT22;9760;50.944;5.304;2023-08-06T08:23:27;13.90;99.90
19252;DHT22;9760;50.944;5.304;2023-08-06T08:25:53;13.90;99.90
19252;DHT22;9760;50.944;5.304;2023-08-06T08:28:19;13.90;99.90
19252;DHT22;9760;50.944;5.304;2023-08-06T08:30:44;13.90;99.90
19252;DHT22;9760;50.944;5.304;2023-08-06T08:33:10;14.00;99.90
19252;DHT22;9760;50.944;5.304;2023-08-06T08:35:36;14.00;99.90
19252;DHT22;9760;50.944;5.304;2023-08-06T08:38:03;14.00;99.90
19252;DHT22;9760;50.944;5.304;2023-08-06T08:40:32;14.00;99.90
19252;DHT22;9760;50.944;5.304;2023-08-06T08:42:59;14.00;99.90
19252;DHT22;9760;50.944;5.304;2023-08-06T08:45:28;14.10;99.90
19252;DHT22;9760;50.944;5.304;2023-08-06T08:47:54;14.10;99.90
19252;DHT22;9760;50.944;5.304;2023-08-06T08:50:21;14.10;99.90
19252;DHT22;9760;50.944;5.304;2023-08-06T08:52:47;14.10;99.90
19252;DHT22;9760;50.944;5.304;2023-08-06T08:55:15;14.20;99.90
19252;DHT22;9760;50.944;5.304;2023-08-06T08:57:42;14.20;99.90
19252;DHT22;9760;50.944;5.304;2023-08-06T09:00:08;14.10;99.90
19252;DHT22;9760;50.944;5.304;2023-08-06T09:02:34;14.10;99.90
19252;DHT22;9760;50.944;5.304;2023-08-06T09:05:01;14.10;99.90
19252;DHT22;9760;50.944;5.304;2023-08-06T09:07:32;14.10;99.90
19252;DHT22;9760;50.944;5.304;2023-08-06T09:10:02;14.00;99.90
19252;DHT22;9760;50.944;5.304;2023-08-06T09:12:30;14.20;99.90
19252;DHT22;9760;50.944;5.304;2023-08-06T09:14:56;14.20;99.90
19252;DHT22;9760;50.944;5.304;2023-08-06T09:17:21;14.30;99.90
19252;DHT22;9760;50.944;5.304;2023-08-06T09:19:47;14.30;99.90
19252;DHT22;9760;50.944;5.304;2023-08-06T09:22:15;14.40;99.90
19252;DHT22;9760;50.944;5.304;2023-08-06T09:24:43;14.40;99.90
19252;DHT22;9760;50.944;5.304;2023-08-06T09:27:14;14.50;99.90
19252;DHT22;9760;50.944;5.304;2023-08-06T09:29:43;14.50;99.90
19252;DHT22;9760;50.944;5.304;2023-08-06T09:32:13;14.60;99.90
19252;DHT22;9760;50.944;5.304;2023-08-06T09:34:41;14.50;99.90
19252;DHT22;9760;50.944;5.304;2023-08-06T09:37:08;14.50;99.90
19252;DHT22;9760;50.944;5.304;2023-08-06T09:39:35;14.50;99.90
19252;DHT22;9760;50.944;5.304;2023-08-06T09:42:02;14.60;99.90
19252;DHT22;9760;50.944;5.304;2023-08-06T09:44:30;14.50;99.90
19252;DHT22;9760;50.944;5.304;2023-08-06T09:47:01;14.50;99.90
19252;DHT22;9760;50.944;5.304;2023-08-06T09:49:40;14.60;99.90
19252;DHT22;9760;50.944;5.304;2023-08-06T09:52:11;14.70;99.90
19252;DHT22;9760;50.944;5.304;2023-08-06T09:54:37;14.50;99.90
19252;DHT22;9760;50.944;5.304;2023-08-06T09:57:04;14.50;99.90
19252;DHT22;9760;50.944;5.304;2023-08-06T09:59:32;14.50;99.90
19252;DHT22;9760;50.944;5.304;2023-08-06T10:01:58;14.50;99.90
19252;DHT22;9760;50.944;5.304;2023-08-06T10:04:27;14.60;99.90
19252;DHT22;9760;50.944;5.304;2023-08-06T10:06:54;14.70;99.90
19252;DHT22;9760;50.944;5.304;2023-08-06T10:09:20;14.70;99.90
19252;DHT22;9760;50.944;5.304;2023-08-06T10:11:51;14.70;99.90
19252;DHT22;9760;50.944;5.304;2023-08-06T10:14:24;14.70;99.90
19252;DHT22;9760;50.944;5.304;2023-08-06T10:16:51;14.70;99.90
19252;DHT22;9760;50.944;5.304;2023-08-06T10:19:18;14.60;99.90
19252;DHT22;9760;50.944;5.304;2023-08-06T10:22:09;14.50;99.90
19252;DHT22;9760;50.944;5.304;2023-08-06T10:24:52;14.50;99.90
19252;DHT22;9760;50.944;5.304;2023-08-06T10:27:40;14.50;99.90
19252;DHT22;9760;50.944;5.304;2023-08-06T10:32:58;14.40;99.90
19252;DHT22;9760;50.944;5.304;2023-08-06T10:35:44;14.30;99.90
19252;DHT22;9760;50.944;5.304;2023-08-06T10:38:17;14.20;99.90
19252;DHT22;9760;50.944;5.304;2023-08-06T10:45:52;14.40;99.90
19252;DHT22;9760;50.944;5.304;2023-08-06T10:48:34;14.40;99.90
19252;DHT22;9760;50.944;5.304;2023-08-06T10:51:00;14.30;99.90
19252;DHT22;9760;50.944;5.304;2023-08-06T10:53:26;14.20;99.90
19252;DHT22;9760;50.944;5.304;2023-08-06T10:55:52;14.20;99.90
19252;DHT22;9760;50.944;5.304;2023-08-06T10:58:18;14.20;99.90
19252;DHT22;9760;50.944;5.304;2023-08-06T11:00:44;14.30;99.90
19252;DHT22;9760;50.944;5.304;2023-08-06T11:03:09;14.30;99.90
19252;DHT22;9760;50.944;5.304;2023-08-06T11:05:39;14.40;99.90
19252;DHT22;9760;50.944;5.304;2023-08-06T11:08:04;14.40;99.90
19252;DHT22;9760;50.944;5.304;2023-08-06T11:10:32;14.40;99.90
19252;DHT22;9760;50.944;5.304;2023-08-06T11:13:02;14.40;99.90
19252;DHT22;9760;50.944;5.304;2023-08-06T11:15:30;14.40;99.90
19252;DHT22;9760;50.944;5.304;2023-08-06T11:17:55;14.40;99.90
19252;DHT22;9760;50.944;5.304;2023-08-06T11:20:21;14.40;99.90
19252;DHT22;9760;50.944;5.304;2023-08-06T11:22:50;14.40;99.90
19252;DHT22;9760;50.944;5.304;2023-08-06T11:25:16;14.30;99.90
19252;DHT22;9760;50.944;5.304;2023-08-06T11:27:41;14.20;99.90
19252;DHT22;9760;50.944;5.304;2023-08-06T11:30:07;14.20;99.90
19252;DHT22;9760;50.944;5.304;2023-08-06T11:32:45;14.10;99.90
19252;DHT22;9760;50.944;5.304;2023-08-06T11:35:12;14.10;99.90
19252;DHT22;9760;50.944;5.304;2023-08-06T11:37:43;14.00;99.90
19252;DHT22;9760;50.944;5.304;2023-08-06T11:40:09;14.10;99.90
19252;DHT22;9760;50.944;5.304;2023-08-06T11:42:36;14.20;99.90
19252;DHT22;9760;50.944;5.304;2023-08-06T11:45:05;14.30;99.90
19252;DHT22;9760;50.944;5.304;2023-08-06T11:47:31;14.50;99.90
19252;DHT22;9760;50.944;5.304;2023-08-06T11:49:57;14.50;99.90
19252;DHT22;9760;50.944;5.304;2023-08-06T11:52:24;14.60;99.90
19252;DHT22;9760;50.944;5.304;2023-08-06T11:55:06;14.70;99.90
19252;DHT22;9760;50.944;5.304;2023-08-06T11:57:34;14.80;99.90
19252;DHT22;9760;50.944;5.304;2023-08-06T12:00:07;14.80;99.90
19252;DHT22;9760;50.944;5.304;2023-08-06T12:02:34;14.70;99.90
19252;DHT22;9760;50.944;5.304;2023-08-06T12:05:13;14.50;99.90
19252;DHT22;9760;50.944;5.304;2023-08-06T12:07:49;14.40;99.90
19252;DHT22;9760;50.944;5.304;2023-08-06T12:10:16;14.40;99.90
19252;DHT22;9760;50.944;5.304;2023-08-06T12:12:42;14.30;99.90
19252;DHT22;9760;50.944;5.304;2023-08-06T12:15:09;14.20;99.90
19252;DHT22;9760;50.944;5.304;2023-08-06T12:17:36;14.20;99.90
19252;DHT22;9760;50.944;5.304;2023-08-06T12:20:06;14.30;99.90
19252;DHT22;9760;50.944;5.304;2023-08-06T12:22:32;14.20;99.90
19252;DHT22;9760;50.944;5.304;2023-08-06T12:25:02;14.20;99.90
19252;DHT22;9760;50.944;5.304;2023-08-06T12:27:33;14.20;99.90
19252;DHT22;9760;50.944;5.304;2023-08-06T12:29:59;14.20;99.90
19252;DHT22;9760;50.944;5.304;2023-08-06T12:32:25;14.30;99.90
19252;DHT22;9760;50.944;5.304;2023-08-06T12:34:51;14.30;99.90
19252;DHT22;9760;50.944;5.304;2023-08-06T12:37:16;14.40;99.90
19252;DHT22;9760;50.944;5.304;2023-08-06T12:39:42;14.40;99.90
19252;DHT22;9760;50.944;5.304;2023-08-06T12:42:08;14.40;99.90
19252;DHT22;9760;50.944;5.304;2023-08-06T12:44:34;14.40;99.90
19252;DHT22;9760;50.944;5.304;2023-08-06T12:46:59;14.30;99.90
19252;DHT22;9760;50.944;5.304;2023-08-06T12:49:25;14.30;99.90
19252;DHT22;9760;50.944;5.304;2023-08-06T12:51:52;14.30;99.90
19252;DHT22;9760;50.944;5.304;2023-08-06T12:54:22;14.50;99.90
19252;DHT22;9760;50.944;5.304;2023-08-06T12:56:48;14.50;99.90
19252;DHT22;9760;50.944;5.304;2023-08-06T12:59:15;14.50;99.90
19252;DHT22;9760;50.944;5.304;2023-08-06T13:01:41;14.50;99.90
19252;DHT22;9760;50.944;5.304;2023-08-06T13:04:07;14.50;99.90
19252;DHT22;9760;50.944;5.304;2023-08-06T13:06:33;14.50;99.90
19252;DHT22;9760;50.944;5.304;2023-08-06T13:09:03;14.50;99.90
19252;DHT22;9760;50.944;5.304;2023-08-06T13:11:30;14.50;99.90
19252;DHT22;9760;50.944;5.304;2023-08-06T13:14:03;14.60;99.90
19252;DHT22;9760;50.944;5.304;2023-08-06T13:16:29;14.50;99.90
19252;DHT22;9760;50.944;5.304;2023-08-06T13:18:54;14.40;99.90
19252;DHT22;9760;50.944;5.304;2023-08-06T13:21:20;14.20;99.90
19252;DHT22;9760;50.944;5.304;2023-08-06T13:23:45;14.20;99.90
19252;DHT22;9760;50.944;5.304;2023-08-06T13:26:13;14.20;99.90
19252;DHT22;9760;50.944;5.304;2023-08-06T13:28:38;14.20;99.90
19252;DHT22;9760;50.944;5.304;2023-08-06T13:31:04;14.20;99.90
19252;DHT22;9760;50.944;5.304;2023-08-06T13:33:30;14.20;99.90
19252;DHT22;9760;50.944;5.304;2023-08-06T13:35:56;14.20;99.90
19252;DHT22;9760;50.944;5.304;2023-08-06T13:38:21;14.20;99.90
19252;DHT22;9760;50.944;5.304;2023-08-06T13:40:48;14.10;99.90
19252;DHT22;9760;50.944;5.304;2023-08-06T13:43:13;14.10;99.90
19252;DHT22;9760;50.944;5.304;2023-08-06T13:45:41;14.10;99.90
19252;DHT22;9760;50.944;5.304;2023-08-06T13:48:07;14.00;99.90
19252;DHT22;9760;50.944;5.304;2023-08-06T13:50:32;14.00;99.90
19252;DHT22;9760;50.944;5.304;2023-08-06T13:52:58;14.00;99.90
19252;DHT22;9760;50.944;5.304;2023-08-06T13:55:24;14.00;99.90
19252;DHT22;9760;50.944;5.304;2023-08-06T13:57:49;14.00;99.90
19252;DHT22;9760;50.944;5.304;2023-08-06T14:00:16;14.00;99.90
19252;DHT22;9760;50.944;5.304;2023-08-06T14:02:42;14.00;99.90
19252;DHT22;9760;50.944;5.304;2023-08-06T14:05:09;14.00;99.90
19252;DHT22;9760;50.944;5.304;2023-08-06T14:07:35;14.00;99.90
19252;DHT22;9760;50.944;5.304;2023-08-06T14:10:01;14.00;99.90
19252;DHT22;9760;50.944;5.304;2023-08-06T14:12:26;14.00;99.90
19252;DHT22;9760;50.944;5.304;2023-08-06T14:14:52;14.00;99.90
19252;DHT22;9760;50.944;5.304;2023-08-06T14:17:18;14.10;99.90
19252;DHT22;9760;50.944;5.304;2023-08-06T14:19:43;14.20;99.90
19252;DHT22;9760;50.944;5.304;2023-08-06T14:22:09;14.20;99.90
19252;DHT22;9760;50.944;5.304;2023-08-06T14:24:35;14.30;99.90
19252;DHT22;9760;50.944;5.304;2023-08-06T14:27:00;14.30;99.90
19252;DHT22;9760;50.944;5.304;2023-08-06T14:29:26;14.40;99.90
19252;DHT22;9760;50.944;5.304;2023-08-06T14:31:52;14.40;99.90
19252;DHT22;9760;50.944;5.304;2023-08-06T14:34:17;14.30;99.90
19252;DHT22;9760;50.944;5.304;2023-08-06T14:36:43;14.30;99.90
19252;DHT22;9760;50.944;5.304;2023-08-06T14:39:08;14.20;99.90
19252;DHT22;9760;50.944;5.304;2023-08-06T14:41:34;14.20;99.90
19252;DHT22;9760;50.944;5.304;2023-08-06T14:44:00;14.20;99.90
19252;DHT22;9760;50.944;5.304;2023-08-06T14:46:26;14.10;99.90
19252;DHT22;9760;50.944;5.304;2023-08-06T14:48:51;14.10;99.90
19252;DHT22;9760;50.944;5.304;2023-08-06T14:51:17;14.00;99.90
19252;DHT22;9760;50.944;5.304;2023-08-06T14:53:45;13.90;99.90
19252;DHT22;9760;50.944;5.304;2023-08-06T14:56:11;13.90;99.90
19252;DHT22;9760;50.944;5.304;2023-08-06T14:58:37;13.70;99.90
19252;DHT22;9760;50.944;5.304;2023-08-06T15:01:02;13.70;99.90
19252;DHT22;9760;50.944;5.304;2023-08-06T15:03:28;13.70;99.90
19252;DHT22;9760;50.944;5.304;2023-08-06T15:05:54;13.70;99.90
19252;DHT22;9760;50.944;5.304;2023-08-06T15:08:19;13.60;99.90
19252;DHT22;9760;50.944;5.304;2023-08-06T15:10:52;13.60;99.90
19252;DHT22;9760;50.944;5.304;2023-08-06T15:13:18;13.60;99.90
19252;DHT22;9760;50.944;5.304;2023-08-06T15:15:46;13.60;99.90
19252;DHT22;9760;50.944;5.304;2023-08-06T15:18:11;13.70;99.90
19252;DHT22;9760;50.944;5.304;2023-08-06T15:20:37;13.60;99.90
19252;DHT22;9760;50.944;5.304;2023-08-06T15:23:03;13.70;99.90
19252;DHT22;9760;50.944;5.304;2023-08-06T15:25:28;13.60;99.90
19252;DHT22;9760;50.944;5.304;2023-08-06T15:27:54;13.60;99.90
19252;DHT22;9760;50.944;5.304;2023-08-06T15:30:20;13.70;99.90
19252;DHT22;9760;50.944;5.304;2023-08-06T15:32:46;13.60;99.90
19252;DHT22;9760;50.944;5.304;2023-08-06T15:35:12;13.70;99.90
19252;DHT22;9760;50.944;5.304;2023-08-06T15:37:38;13.70;99.90
19252;DHT22;9760;50.944;5.304;2023-08-06T15:40:08;13.70;99.90
19252;DHT22;9760;50.944;5.304;2023-08-06T15:42:33;13.60;99.90
19252;DHT22;9760;50.944;5.304;2023-08-06T15:44:59;13.60;99.90
19252;DHT22;9760;50.944;5.304;2023-08-06T15:47:25;13.60;99.90
19252;DHT22;9760;50.944;5.304;2023-08-06T15:49:51;13.60;99.90
19252;DHT22;9760;50.944;5.304;2023-08-06T15:52:16;13.60;99.90
19252;DHT22;9760;50.944;5.304;2023-08-06T15:54:45;13.70;99.90